North Branch, MN (55056)

12:50 PM CDT on August 27, 2016 (GMT -0500)
| | Change Station

Elev -9999 ft 0.00 °N, 0.00 °E | Updated

Cloudy
Cloudy
67 °F
Feels Like 67 °F
N
5
Wind Variable Wind from SSE
Gusts mph

Today
High -- | Low -- °F
--% Chance of Precip.
Yesterday
High -- | Low -- °F
Precip. -- in
Pressure 30.03 in
Visibility 10.0 miles
Clouds Mostly Cloudy 11000 ft
Dew Point 61 °F
Humidity 80%
Rainfall --
Snow Depth Not available.
6:27 AM 7:57 PM
Waning Crescent, 23% visible
METAR KROS 271733Z AUTO 15006G14KT 10SM -RA BKN110 18/15 A3003 RMK AO2 T01800153
Pressure 30.03 in
Visibility 10.0 miles
Clouds Mostly Cloudy 11000 ft
Dew Point 61 °F
Humidity 80%
Rainfall --
Snow Depth Not available.
6:27 AM 7:57 PM
Waning Crescent, 23% visible
METAR KROS 271733Z AUTO 15006G14KT 10SM -RA BKN110 18/15 A3003 RMK AO2 T01800153

10-Day Weather Forecast

Almanac

Astronomy

Aug. 27, 2016 Rise Set
Actual Time
Civil Twilight
Nautical Twilight
Astronomical Twilight
Moon
Length of Visible Light
Length of Day
Tomorrow will be .
, % of the Moon is Illuminated

Today's Extremes

State Highs State Lows

Community

WunderPhotos

Upload Photos

1,935,387 photos uploaded!

WunderBlog® & News

Nearby

Air Quality

  Air Quality AQ Index Pollutant
Not available.

Snow Depth

Station Depth Elevation

Earthquake Activity

City Distance Mag. Time & Date
Minimum magnitude displayed is 2.5.

Coastal Water Temperatures

Place Temperature

Stations

Nearby Weather Stations

Station Location Temp. Windchill Dew Point Humidity Wind Precip. Elev Updated Type
                   

Watches & Warnings

There are currently no watches in effect.